createdAt,value
2022-07-31T00:00:53.909Z,9.40
2022-07-31T00:03:22.420Z,9.23
2022-07-31T00:05:50.891Z,9.77
2022-07-31T00:08:19.362Z,10.10
2022-07-31T00:10:47.863Z,10.85
2022-07-31T00:13:16.333Z,11.35
2022-07-31T00:15:44.817Z,8.68
2022-07-31T00:18:14.851Z,10.18
2022-07-31T00:20:44.492Z,10.60
2022-07-31T00:23:13.259Z,7.03
2022-07-31T00:25:47.644Z,10.63
2022-07-31T00:28:16.123Z,13.60
2022-07-31T00:30:44.560Z,13.07
2022-07-31T00:33:16.097Z,12.32
2022-07-31T00:35:44.759Z,10.40
2022-07-31T00:38:28.596Z,9.95
2022-07-31T00:40:58.413Z,9.30
2022-07-31T00:43:27.506Z,6.50
2022-07-31T00:45:59.539Z,8.27
2022-07-31T00:48:29.696Z,7.68
2022-07-31T00:50:58.236Z,11.30
2022-07-31T00:53:26.957Z,13.23
2022-07-31T00:55:57.472Z,8.07
2022-07-31T00:58:26.316Z,11.40
2022-07-31T01:00:55.008Z,7.40
2022-07-31T01:03:23.618Z,10.38
2022-07-31T01:05:53.511Z,7.13
2022-07-31T01:08:22.066Z,9.73
2022-07-31T01:10:57.392Z,7.15
2022-07-31T01:13:34.293Z,9.55
2022-07-31T01:16:04.769Z,9.60
2022-07-31T01:18:36.369Z,7.22
2022-07-31T01:21:10.385Z,10.63
2022-07-31T01:24:01.541Z,7.80
2022-07-31T01:26:55.109Z,10.73
2022-07-31T01:29:28.438Z,7.13
2022-07-31T01:32:04.082Z,9.32
2022-07-31T01:34:38.310Z,6.22
2022-07-31T01:37:15.317Z,7.80
2022-07-31T01:39:48.145Z,10.90
2022-07-31T01:42:20.060Z,7.90
2022-07-31T01:45:01.584Z,6.85
2022-07-31T01:47:35.891Z,6.72
2022-07-31T01:50:05.963Z,11.45
2022-07-31T01:52:35.712Z,10.40
2022-07-31T01:55:05.895Z,9.80
2022-07-31T01:57:37.550Z,7.68
2022-07-31T02:00:14.884Z,11.02
2022-07-31T02:03:01.624Z,10.15
2022-07-31T02:05:41.876Z,8.93
2022-07-31T02:08:12.444Z,10.82
2022-07-31T02:10:46.351Z,8.20
2022-07-31T02:13:17.943Z,11.70
2022-07-31T02:15:49.796Z,9.35
2022-07-31T02:18:23.477Z,10.80
2022-07-31T02:21:10.647Z,10.35
2022-07-31T02:23:39.350Z,11.48
2022-07-31T02:26:08.986Z,7.38
2022-07-31T02:28:39.463Z,9.25
2022-07-31T02:31:13.189Z,15.43
2022-07-31T02:33:47.217Z,8.43
2022-07-31T02:36:19.215Z,10.00
2022-07-31T02:38:48.769Z,9.70
2022-07-31T02:41:18.673Z,11.00
2022-07-31T02:43:48.799Z,11.07
2022-07-31T02:46:23.620Z,9.63
2022-07-31T02:48:54.154Z,10.55
2022-07-31T02:51:25.184Z,8.30
2022-07-31T02:53:55.906Z,9.00
2022-07-31T02:56:29.375Z,13.55
2022-07-31T02:58:57.908Z,10.18
2022-07-31T03:01:30.029Z,10.35
2022-07-31T03:03:58.539Z,6.80
2022-07-31T03:06:29.667Z,8.68
2022-07-31T03:08:58.562Z,9.05
2022-07-31T03:11:27.274Z,8.20
2022-07-31T03:13:59.236Z,8.77
2022-07-31T03:16:31.189Z,10.23
2022-07-31T03:19:03.329Z,9.90
2022-07-31T03:21:32.548Z,8.80
2022-07-31T03:24:02.034Z,12.73
2022-07-31T03:26:32.157Z,10.15
2022-07-31T03:29:02.746Z,7.75
2022-07-31T03:31:33.064Z,11.30
2022-07-31T03:34:01.627Z,10.02
2022-07-31T03:36:32.216Z,11.18
2022-07-31T03:39:00.709Z,9.77
2022-07-31T03:41:38.207Z,12.52
2022-07-31T03:44:07.276Z,12.75
2022-07-31T03:46:37.363Z,9.20
2022-07-31T03:49:06.849Z,10.60
2022-07-31T03:51:36.047Z,11.30
2022-07-31T03:54:05.133Z,10.63
2022-07-31T03:56:59.127Z,7.85
2022-07-31T03:59:29.853Z,10.25
2022-07-31T04:02:10.531Z,9.45
2022-07-31T04:04:49.328Z,11.23
2022-07-31T04:07:18.086Z,9.15
2022-07-31T04:09:46.631Z,11.15
2022-07-31T04:12:16.695Z,10.48
2022-07-31T04:14:45.593Z,10.07
2022-07-31T04:17:15.550Z,9.68
2022-07-31T04:19:44.135Z,7.93
2022-07-31T04:22:12.703Z,8.57
2022-07-31T04:24:41.294Z,11.82
2022-07-31T04:27:48.237Z,10.10
2022-07-31T04:30:18.123Z,10.88
2022-07-31T04:32:50.068Z,7.88
2022-07-31T04:35:23.396Z,10.35
2022-07-31T04:37:51.933Z,12.68
2022-07-31T04:40:23.139Z,9.75
2022-07-31T04:42:51.642Z,10.02
2022-07-31T04:45:20.137Z,11.52
2022-07-31T04:47:50.236Z,8.60
2022-07-31T04:50:18.956Z,8.07
2022-07-31T04:52:57.281Z,9.70
2022-07-31T04:55:27.496Z,11.45
2022-07-31T04:57:55.980Z,12.40
2022-07-31T05:00:25.023Z,10.23
2022-07-31T05:02:54.992Z,9.55
2022-07-31T05:05:24.886Z,7.55
2022-07-31T05:07:53.340Z,8.27
2022-07-31T05:10:44.155Z,8.48
2022-07-31T05:13:12.772Z,7.60
2022-07-31T05:15:44.790Z,6.88
2022-07-31T05:18:14.737Z,7.43
2022-07-31T05:21:19.511Z,8.88
2022-07-31T05:24:02.081Z,7.57
2022-07-31T05:26:47.298Z,6.60
2022-07-31T05:29:15.876Z,6.70
2022-07-31T05:31:59.596Z,5.78
2022-07-31T05:34:31.986Z,3.90
2022-07-31T05:37:02.325Z,4.35
2022-07-31T05:39:33.345Z,2.78
2022-07-31T05:42:20.223Z,4.55
2022-07-31T05:45:01.188Z,3.75
2022-07-31T05:47:40.055Z,4.88
2022-07-31T05:50:11.272Z,2.33
2022-07-31T05:52:40.044Z,3.75
2022-07-31T05:55:27.029Z,8.07
2022-07-31T05:58:35.144Z,6.25
2022-07-31T06:01:05.077Z,4.20
2022-07-31T06:03:38.604Z,7.80
2022-07-31T06:06:28.748Z,5.40
2022-07-31T06:09:03.421Z,4.85
2022-07-31T06:11:36.984Z,3.53
2022-07-31T06:14:05.593Z,3.72
2022-07-31T06:16:53.281Z,4.18
2022-07-31T06:19:24.582Z,2.92
2022-07-31T06:21:55.918Z,2.90
2022-07-31T06:24:26.008Z,3.40
2022-07-31T06:26:58.368Z,2.45
2022-07-31T06:29:41.255Z,2.85
2022-07-31T06:32:11.210Z,2.33
2022-07-31T06:34:40.243Z,3.13
2022-07-31T06:37:10.389Z,2.67
2022-07-31T06:39:55.277Z,5.20
2022-07-31T06:42:48.886Z,2.88
2022-07-31T06:45:51.193Z,3.15
2022-07-31T06:48:50.341Z,3.72
2022-07-31T06:51:31.613Z,2.63
2022-07-31T06:54:03.020Z,3.83
2022-07-31T06:56:32.256Z,2.45
2022-07-31T06:59:01.186Z,2.97
2022-07-31T07:01:30.098Z,3.45
2022-07-31T07:03:59.538Z,2.50
2022-07-31T07:06:28.231Z,1.88
2022-07-31T07:08:57.685Z,2.88
2022-07-31T07:11:28.725Z,2.15
2022-07-31T07:13:57.204Z,3.17
2022-07-31T07:16:25.756Z,1.70
2022-07-31T07:18:54.293Z,1.60
2022-07-31T07:21:25.072Z,2.25
2022-07-31T07:23:55.092Z,4.20
2022-07-31T07:26:47.789Z,4.72
2022-07-31T07:29:16.313Z,2.97
2022-07-31T07:31:44.927Z,2.53
2022-07-31T07:34:14.095Z,3.10
2022-07-31T07:36:43.151Z,2.90
2022-07-31T07:39:22.944Z,3.47
2022-07-31T07:41:54.229Z,3.65
2022-07-31T07:44:22.752Z,3.75
2022-07-31T07:46:51.263Z,2.50
2022-07-31T07:49:21.917Z,3.10
2022-07-31T07:52:10.155Z,3.75
2022-07-31T07:54:43.370Z,2.30
2022-07-31T07:57:33.991Z,2.53
2022-07-31T08:00:21.199Z,2.13
2022-07-31T08:03:02.924Z,2.92
2022-07-31T08:05:46.155Z,2.80
2022-07-31T08:08:15.283Z,2.47
2022-07-31T08:10:49.637Z,3.22
2022-07-31T08:13:38.825Z,2.70
2022-07-31T08:16:12.216Z,5.03
2022-07-31T08:18:46.318Z,2.15
2022-07-31T08:21:14.880Z,3.25
2022-07-31T08:23:43.504Z,2.83
2022-07-31T08:26:13.188Z,1.88
2022-07-31T08:28:50.651Z,3.38
2022-07-31T08:31:23.561Z,4.35
2022-07-31T08:34:13.155Z,4.53
2022-07-31T08:37:57.591Z,4.18
2022-07-31T08:39:51.930Z,3.50
2022-07-31T08:42:20.469Z,5.22
2022-07-31T08:44:50.405Z,3.85
2022-07-31T08:47:27.051Z,2.80
2022-07-31T08:52:28.679Z,3.28
2022-07-31T08:55:09.404Z,3.25
2022-07-31T08:57:39.883Z,2.55
2022-07-31T09:00:13.142Z,2.78
2022-07-31T09:02:42.208Z,2.13
2022-07-31T09:05:42.190Z,3.67
2022-07-31T09:08:15.009Z,2.40
2022-07-31T09:10:49.874Z,4.00
2022-07-31T09:13:20.368Z,3.55
2022-07-31T09:15:58.436Z,4.10
2022-07-31T09:18:27.005Z,2.35
2022-07-31T09:24:07.919Z,3.80
2022-07-31T09:26:37.485Z,3.90
2022-07-31T09:29:08.706Z,3.17
2022-07-31T09:31:39.428Z,3.63
2022-07-31T09:34:39.830Z,4.80
2022-07-31T09:37:15.328Z,4.88
2022-07-31T09:40:02.536Z,2.05
2022-07-31T09:42:55.613Z,3.33
2022-07-31T09:45:30.563Z,1.73
2022-07-31T09:48:15.159Z,2.42
2022-07-31T09:50:55.744Z,2.35
2022-07-31T09:53:25.570Z,3.33
2022-07-31T09:56:04.461Z,2.67
2022-07-31T09:58:32.944Z,1.92
2022-07-31T10:01:05.302Z,2.28
2022-07-31T10:03:38.005Z,4.57
2022-07-31T10:06:08.017Z,3.80
2022-07-31T10:08:38.252Z,5.63
2022-07-31T10:11:43.287Z,2.70
2022-07-31T10:14:23.741Z,2.65
2022-07-31T10:16:56.345Z,2.15
2022-07-31T10:19:46.828Z,2.53
2022-07-31T10:22:45.143Z,1.98
2022-07-31T10:25:21.792Z,2.88
2022-07-31T10:27:51.478Z,2.47
2022-07-31T10:30:22.739Z,2.40
2022-07-31T10:32:56.075Z,3.87
2022-07-31T10:35:29.645Z,4.88
2022-07-31T10:38:24.181Z,3.10
2022-07-31T10:41:11.266Z,2.20
2022-07-31T10:43:47.188Z,2.88
2022-07-31T10:46:30.512Z,2.40
2022-07-31T10:49:40.572Z,1.30
2022-07-31T10:52:35.752Z,3.45
2022-07-31T10:55:18.008Z,2.33
2022-07-31T10:58:12.164Z,2.53
2022-07-31T11:01:07.949Z,2.13
2022-07-31T11:03:41.005Z,4.68
2022-07-31T11:06:40.488Z,1.67
2022-07-31T11:09:30.823Z,3.05
2022-07-31T11:12:19.672Z,2.22
2022-07-31T11:14:58.348Z,2.13
2022-07-31T11:18:17.444Z,2.42
2022-07-31T11:20:47.030Z,1.77
2022-07-31T11:23:16.929Z,1.80
2022-07-31T11:25:47.780Z,2.30
2022-07-31T11:28:19.070Z,2.13
2022-07-31T11:30:52.353Z,3.65
2022-07-31T11:33:41.603Z,3.28
2022-07-31T11:36:13.948Z,5.20
2022-07-31T11:38:44.760Z,2.38
2022-07-31T11:41:17.413Z,3.25
2022-07-31T11:43:52.671Z,3.63
2022-07-31T11:46:26.428Z,2.72
2022-07-31T11:48:55.836Z,3.00
2022-07-31T11:51:25.148Z,6.38
2022-07-31T11:53:56.763Z,2.72
2022-07-31T11:56:29.577Z,2.20
2022-07-31T11:58:59.248Z,2.90
2022-07-31T12:01:29.779Z,1.63
2022-07-31T12:04:07.572Z,2.53
2022-07-31T12:06:39.433Z,1.85
2022-07-31T12:09:08.139Z,1.95
2022-07-31T12:11:58.657Z,3.47
2022-07-31T12:14:34.294Z,1.90
2022-07-31T12:17:05.204Z,3.30
2022-07-31T12:19:37.418Z,3.30
2022-07-31T12:22:14.705Z,2.40
2022-07-31T12:24:43.455Z,3.30
2022-07-31T12:27:18.539Z,2.55
2022-07-31T12:29:47.143Z,3.22
2022-07-31T12:32:25.968Z,2.22
2022-07-31T12:35:04.048Z,2.17
2022-07-31T12:37:32.801Z,3.20
2022-07-31T12:40:01.761Z,1.95
2022-07-31T12:42:41.221Z,4.18
2022-07-31T12:45:19.763Z,4.55
2022-07-31T12:47:51.771Z,3.35
2022-07-31T12:50:20.997Z,2.17
2022-07-31T12:52:49.919Z,2.92
2022-07-31T12:55:18.695Z,2.15
2022-07-31T12:57:50.903Z,2.30
2022-07-31T13:00:23.126Z,1.50
2022-07-31T13:02:52.315Z,2.75
2022-07-31T13:05:21.230Z,2.03
2022-07-31T13:07:50.412Z,3.20
2022-07-31T13:10:23.762Z,3.63
2022-07-31T13:12:55.029Z,2.55
2022-07-31T13:15:30.122Z,3.45
2022-07-31T13:17:59.642Z,4.18
2022-07-31T13:20:28.096Z,1.50
2022-07-31T13:22:58.473Z,2.25
2022-07-31T13:25:27.197Z,1.58
2022-07-31T13:27:57.179Z,2.20
2022-07-31T13:30:25.774Z,3.70
2022-07-31T13:32:54.190Z,3.28
2022-07-31T13:35:28.365Z,1.40
2022-07-31T13:37:57.793Z,3.40
2022-07-31T13:40:40.529Z,2.88
2022-07-31T13:43:10.388Z,2.88
2022-07-31T13:45:38.968Z,4.72
2022-07-31T13:48:10.214Z,2.20
2022-07-31T13:50:39.912Z,2.28
2022-07-31T13:53:08.900Z,2.00
2022-07-31T13:55:37.416Z,2.42
2022-07-31T13:58:05.954Z,2.72
2022-07-31T14:00:35.896Z,3.10
2022-07-31T14:03:04.408Z,4.40
2022-07-31T14:05:40.219Z,2.88
2022-07-31T14:08:29.771Z,4.00
2022-07-31T14:10:57.596Z,2.63
2022-07-31T14:13:26.404Z,4.53
2022-07-31T14:15:56.355Z,3.53
2022-07-31T14:18:25.241Z,2.15
2022-07-31T14:20:53.693Z,4.47
2022-07-31T14:23:35.211Z,3.80
2022-07-31T14:26:05.293Z,2.58
2022-07-31T14:28:33.905Z,2.85
2022-07-31T14:31:04.181Z,2.00
2022-07-31T14:33:32.816Z,3.22
2022-07-31T14:36:03.847Z,3.28
2022-07-31T14:38:32.308Z,3.13
2022-07-31T14:41:00.829Z,2.58
2022-07-31T14:43:29.297Z,3.42
2022-07-31T14:45:57.868Z,3.65
2022-07-31T14:48:28.422Z,2.72
2022-07-31T14:50:56.907Z,3.42
2022-07-31T14:53:25.401Z,4.03
2022-07-31T14:55:53.801Z,2.90
2022-07-31T14:58:32.270Z,2.65
2022-07-31T15:01:03.546Z,3.42
2022-07-31T15:03:33.647Z,2.92
2022-07-31T15:06:51.180Z,2.83
2022-07-31T15:08:50.703Z,3.50
2022-07-31T15:11:19.238Z,2.80
2022-07-31T15:13:47.876Z,3.35
2022-07-31T15:16:16.359Z,3.65
2022-07-31T15:18:49.979Z,3.67
2022-07-31T15:21:20.072Z,3.95
2022-07-31T15:23:48.492Z,3.15
2022-07-31T15:26:17.121Z,5.03
2022-07-31T15:28:46.181Z,4.75
2022-07-31T15:31:14.657Z,2.58
2022-07-31T15:33:46.397Z,2.70
2022-07-31T15:36:15.419Z,3.20
2022-07-31T15:38:43.966Z,2.95
2022-07-31T15:41:12.510Z,4.72
2022-07-31T15:43:47.675Z,2.20
2022-07-31T15:46:16.144Z,3.10
2022-07-31T15:48:46.125Z,2.33
2022-07-31T15:51:14.788Z,2.92
2022-07-31T15:53:43.378Z,9.68
2022-07-31T15:56:11.856Z,2.83
2022-07-31T15:58:40.450Z,5.00
2022-07-31T16:01:09.111Z,2.00
2022-07-31T16:03:50.722Z,4.30
2022-07-31T16:06:27.980Z,3.13
2022-07-31T16:09:00.659Z,6.22
2022-07-31T16:12:03.946Z,3.45
2022-07-31T16:14:17.814Z,12.82
2022-07-31T16:16:46.336Z,5.18
2022-07-31T16:19:15.256Z,4.07
2022-07-31T16:22:27.879Z,4.20
2022-07-31T16:24:57.728Z,5.03
2022-07-31T16:27:26.280Z,4.30
2022-07-31T16:29:59.896Z,4.63
2022-07-31T16:32:32.632Z,3.80
2022-07-31T16:35:01.836Z,4.40
2022-07-31T16:37:52.377Z,2.17
2022-07-31T16:40:29.919Z,3.70
2022-07-31T16:43:46.760Z,4.57
2022-07-31T16:45:50.820Z,3.08
2022-07-31T16:48:19.554Z,3.03
2022-07-31T16:50:53.315Z,4.15
2022-07-31T16:54:11.727Z,2.58
2022-07-31T16:56:14.045Z,4.45
2022-07-31T16:58:43.980Z,3.88
2022-07-31T17:01:59.144Z,2.42
2022-07-31T17:04:04.357Z,3.20
2022-07-31T17:06:36.821Z,3.33
2022-07-31T17:09:17.171Z,3.63
2022-07-31T17:11:50.087Z,3.22
2022-07-31T17:14:20.292Z,3.70
2022-07-31T17:16:50.904Z,3.45
2022-07-31T17:19:41.541Z,5.28
2022-07-31T17:22:11.382Z,3.33
2022-07-31T17:24:40.648Z,4.30
2022-07-31T17:27:10.913Z,3.50
2022-07-31T17:29:39.970Z,3.83
2022-07-31T17:32:11.185Z,4.60
2022-07-31T17:34:40.582Z,3.92
2022-07-31T17:37:09.704Z,3.50
2022-07-31T17:39:38.537Z,3.13
2022-07-31T17:42:09.322Z,3.20
2022-07-31T17:44:40.067Z,3.38
2022-07-31T17:47:09.312Z,3.35
2022-07-31T17:49:38.292Z,6.03
2022-07-31T17:52:07.402Z,8.50
2022-07-31T17:54:35.846Z,4.50
2022-07-31T17:57:05.192Z,5.05
2022-07-31T17:59:34.360Z,3.55
2022-07-31T18:02:04.949Z,2.42
2022-07-31T18:04:37.052Z,4.82
2022-07-31T18:07:07.340Z,4.60
2022-07-31T18:09:36.746Z,2.75
2022-07-31T18:12:06.246Z,4.32
2022-07-31T18:14:34.930Z,3.75
2022-07-31T18:17:04.896Z,4.20
2022-07-31T18:19:33.362Z,2.47
2022-07-31T18:22:02.011Z,3.35
2022-07-31T18:24:30.801Z,3.65
2022-07-31T18:26:59.479Z,2.97
2022-07-31T18:29:28.343Z,4.18
2022-07-31T18:31:56.891Z,4.68
2022-07-31T18:34:26.795Z,2.88
2022-07-31T18:36:55.381Z,7.13
2022-07-31T18:39:24.473Z,4.13
2022-07-31T18:41:52.974Z,3.65
2022-07-31T18:44:22.262Z,4.53
2022-07-31T18:46:51.169Z,3.35
2022-07-31T18:51:01.468Z,3.72
2022-07-31T18:52:10.905Z,5.20
2022-07-31T18:54:40.132Z,3.78
2022-07-31T18:57:09.504Z,4.47
2022-07-31T18:59:38.003Z,3.17
2022-07-31T19:02:08.588Z,3.40
2022-07-31T19:04:40.901Z,3.53
2022-07-31T19:07:10.753Z,4.88
2022-07-31T19:09:39.442Z,4.25
2022-07-31T19:12:08.986Z,4.50
2022-07-31T19:14:37.705Z,4.68
2022-07-31T19:17:08.398Z,9.77
2022-07-31T19:19:40.228Z,7.70
2022-07-31T19:22:25.193Z,6.22
2022-07-31T19:24:54.112Z,8.00
2022-07-31T19:27:22.584Z,5.50
2022-07-31T19:30:13.919Z,4.45
2022-07-31T19:32:42.707Z,4.43
2022-07-31T19:35:11.759Z,7.40
2022-07-31T19:37:41.684Z,5.35
2022-07-31T19:40:11.611Z,4.03
2022-07-31T19:42:40.753Z,5.25
2022-07-31T19:45:09.975Z,4.72
2022-07-31T19:47:38.449Z,5.10
2022-07-31T19:50:07.742Z,7.00
2022-07-31T19:52:36.235Z,4.80
2022-07-31T19:55:07.787Z,4.38
2022-07-31T19:57:36.661Z,6.15
2022-07-31T20:00:06.804Z,6.55
2022-07-31T20:02:35.376Z,4.85
2022-07-31T20:05:03.786Z,6.00
2022-07-31T20:07:33.127Z,9.02
2022-07-31T20:10:02.368Z,8.85
2022-07-31T20:12:33.322Z,8.70
2022-07-31T20:15:01.818Z,9.43
2022-07-31T20:17:32.378Z,6.93
2022-07-31T20:20:04.705Z,6.85
2022-07-31T20:22:44.513Z,6.28
2022-07-31T20:25:20.019Z,7.72
2022-07-31T20:27:51.115Z,4.65
2022-07-31T20:30:22.230Z,4.60
2022-07-31T20:32:51.726Z,3.63
2022-07-31T20:35:29.312Z,4.05
2022-07-31T20:38:15.719Z,3.78
2022-07-31T20:40:53.305Z,5.53
2022-07-31T20:43:27.204Z,5.47
2022-07-31T20:45:58.009Z,5.30
2022-07-31T20:48:31.610Z,5.43
2022-07-31T20:51:00.340Z,7.18
2022-07-31T20:53:30.177Z,5.43
2022-07-31T20:55:59.668Z,3.10
2022-07-31T20:58:29.577Z,4.28
2022-07-31T21:00:58.103Z,4.22
2022-07-31T21:03:26.779Z,4.00
2022-07-31T21:05:55.286Z,7.95
2022-07-31T21:08:23.798Z,5.60
2022-07-31T21:10:52.540Z,4.45
2022-07-31T21:13:20.955Z,4.50
2022-07-31T21:15:51.574Z,5.95
2022-07-31T21:18:22.060Z,4.20
2022-07-31T21:20:53.785Z,5.30
2022-07-31T21:23:23.862Z,5.88
2022-07-31T21:25:52.745Z,3.65
2022-07-31T21:28:21.789Z,3.92
2022-07-31T21:30:53.825Z,4.97
2022-07-31T21:33:23.731Z,10.00
2022-07-31T21:35:52.537Z,6.65
2022-07-31T21:38:21.639Z,7.28
2022-07-31T21:40:50.915Z,6.57
2022-07-31T21:43:22.574Z,6.22
2022-07-31T21:45:57.618Z,4.55
2022-07-31T21:48:31.497Z,5.03
2022-07-31T21:51:00.871Z,6.13
2022-07-31T21:53:29.383Z,5.45
2022-07-31T21:56:02.184Z,6.40
2022-07-31T21:58:30.699Z,5.63
2022-07-31T22:01:00.650Z,5.13
2022-07-31T22:03:29.273Z,10.65
2022-07-31T22:06:15.308Z,4.15
2022-07-31T22:08:44.092Z,6.15
2022-07-31T22:11:12.567Z,5.32
2022-07-31T22:13:41.132Z,7.13
2022-07-31T22:16:11.231Z,5.05
2022-07-31T22:18:40.180Z,6.57
2022-07-31T22:21:09.972Z,5.78
2022-07-31T22:23:38.982Z,6.18
2022-07-31T22:26:07.959Z,7.68
2022-07-31T22:28:37.120Z,6.20
2022-07-31T22:31:05.956Z,6.22
2022-07-31T22:33:36.029Z,6.38
2022-07-31T22:36:07.233Z,4.20
2022-07-31T22:38:38.130Z,7.22
2022-07-31T22:41:06.938Z,7.57
2022-07-31T22:44:13.792Z,5.40
2022-07-31T22:46:24.316Z,4.35
2022-07-31T22:48:55.589Z,7.20
2022-07-31T22:51:24.421Z,6.57
2022-07-31T22:53:52.967Z,3.88
2022-07-31T22:56:21.411Z,5.18
2022-07-31T22:58:49.859Z,5.47
2022-07-31T23:01:18.275Z,6.10
2022-07-31T23:03:46.881Z,6.68
2022-07-31T23:06:31.762Z,4.28
2022-07-31T23:09:02.687Z,4.32
2022-07-31T23:11:31.241Z,6.32
2022-07-31T23:14:00.128Z,7.40
2022-07-31T23:16:28.684Z,5.15
2022-07-31T23:18:57.781Z,8.15
2022-07-31T23:21:27.714Z,5.65
2022-07-31T23:23:56.340Z,7.70
2022-07-31T23:26:26.633Z,5.38
2022-07-31T23:28:56.620Z,5.32
2022-07-31T23:31:25.575Z,6.15
2022-07-31T23:33:54.669Z,5.82
2022-07-31T23:36:23.183Z,4.82
2022-07-31T23:38:53.092Z,6.55
2022-07-31T23:41:35.369Z,7.55
2022-07-31T23:44:05.120Z,6.20
2022-07-31T23:46:33.602Z,11.18
2022-07-31T23:49:02.878Z,6.35
2022-07-31T23:51:31.390Z,5.90
2022-07-31T23:54:01.238Z,6.70
2022-07-31T23:56:29.653Z,6.38
2022-07-31T23:58:58.073Z,5.43
